KSRB

Details ICAO KSRB
Name UPPER CUMBERLAND RGNL
Region United States
Timezone America/Chicago (UTC-5.0)
Plans Departing 19
Arriving 5
Stats Elevation 1,025 ft / 312 m (AMSL)
Location 36.055919° -85.530723°
Runways 1
Magnetic Variation 4.690° W
Sunrise 2018-05-23 10:32:10 UTC / 2018-05-23 05:32:10 Local
Sunset 2018-05-24 00:48:28 UTC / 2018-05-23 19:48:28 Local
Advertisement - Login to hide

Runways

ID Width Length Bearing (true) Bearing (mag) Surface Threshold Offset Overrun Length
04 100 ft / 30 m 6,005 ft / 1,830 m 34.57° 39.26° Asphalt 0 ft / 0 m 0 ft / 0 m
22 100 ft / 30 m 6,005 ft / 1,830 m 214.58° 219.27° Asphalt 0 ft / 0 m 0 ft / 0 m

Map

Weather


0- 5 10 15 20 25 30 35+ Temperature / ° C

Clouds and Precipitation
Forecast for 2018-05-23 12:00 UTC. Updated 6 hours ago

Ground ~20,000 ft ~40,000 ft Winds

METAR

KSRB 231655Z AUTO 00000KT 10SM FEW032 SCT050 BKN060 28/20 A3012 RMK A01

TAF

Not found

Frequencies

Recorded 128.25 MHz AWOS 3
Unicom 122.80 MHz CTAF/UNICOM
Warning: Do not use this data for real-world aviation or navigation. No guarantee of current accuracy is given.